Time;durP1;ratioP1;P1;durP2;ratioP2;P2;SDS_P1;SDS_P2;PMS_P1;PMS_P2;Temp;Humidity;BMP_temperature;BMP_pressure;BME280_temperature;BME280_humidity;BME280_pressure;Samples;Min_cycle;Max_cycle;Signal;HPM_P1;HPM_P2
2022/11/09 00:01:36;;;;;;;;;4.00;4.00;;;;;18.30;53.68;99893.38;5036218;28;46096;-78
2022/11/09 00:04:03;;;;;;;;;3.00;3.00;;;;;18.29;53.76;99889.00;5036242;28;45584;-73
2022/11/09 00:06:30;;;;;;;;;2.67;2.67;;;;;18.32;53.63;99888.94;5036041;28;45441;-71
2022/11/09 00:08:56;;;;;;;;;2.33;2.33;;;;;18.26;53.45;99881.09;5036502;28;45479;-78
2022/11/09 00:11:22;;;;;;;;;4.00;4.00;;;;;18.31;53.53;99896.91;5035748;28;46065;-77
2022/11/09 00:13:47;;;;;;;;;3.33;3.33;;;;;18.31;53.63;99887.22;5053675;28;45530;-71
2022/11/09 00:16:16;;;;;;;;;4.33;3.67;;;;;18.27;53.37;99881.09;5037917;28;45262;-72
2022/11/09 00:18:46;;;;;;;;;3.67;3.00;;;;;18.28;53.41;99887.22;5037634;28;45468;-77
2022/11/09 00:21:15;;;;;;;;;2.67;2.67;;;;;18.25;53.45;99885.50;5037061;28;46174;-71
2022/11/09 00:23:40;;;;;;;;;4.33;3.67;;;;;18.12;53.37;99860.09;5037438;28;45276;-77
2022/11/09 00:26:08;;;;;;;;;5.33;4.67;;;;;18.35;53.52;99898.63;5036167;28;45404;-72
2022/11/09 00:28:33;;;;;;;;;2.67;2.67;;;;;18.28;53.58;99897.81;5037771;28;45539;-72
2022/11/09 00:31:00;;;;;;;;;4.67;4.67;;;;;18.15;53.43;99877.72;5037045;28;46043;-78
2022/11/09 00:33:26;;;;;;;;;3.00;3.00;;;;;18.33;53.54;99905.72;5036208;28;45350;-72
2022/11/09 00:35:52;;;;;;;;;4.67;3.67;;;;;18.22;53.52;99885.56;5037518;28;45239;-71
2022/11/09 00:38:17;;;;;;;;;5.33;4.00;;;;;18.34;53.29;99907.44;5037758;28;45509;-72
2022/11/09 00:40:43;;;;;;;;;3.33;2.67;;;;;18.17;53.35;99868.00;5037318;28;45520;-72
2022/11/09 00:43:09;;;;;;;;;2.00;1.67;;;;;18.35;53.37;99909.22;5037215;28;45212;-71
2022/11/09 00:45:34;;;;;;;;;2.33;2.33;;;;;18.27;53.50;99893.44;5037574;28;45460;-71
2022/11/09 00:48:00;;;;;;;;;3.33;3.33;;;;;18.32;53.53;99914.53;5036141;28;45657;-71
2022/11/09 00:50:26;;;;;;;;;5.33;5.00;;;;;18.14;53.44;99886.53;5036688;28;45665;-71
2022/11/09 00:52:52;;;;;;;;;8.33;7.67;;;;;18.22;53.37;99898.78;5036118;28;45389;-71
2022/11/09 00:55:19;;;;;;;;;18.33;17.00;;;;;18.16;53.47;99892.66;5037162;28;45299;-72
2022/11/09 00:57:48;;;;;;;;;18.00;16.00;;;;;18.18;53.82;99899.69;5037578;28;45515;-77
2022/11/09 01:00:19;;;;;;;;;14.33;14.00;;;;;18.18;53.52;99906.75;5036912;28;46326;-73
2022/11/09 01:02:44;;;;;;;;;14.00;14.00;;;;;18.10;53.95;99898.91;5036802;28;45534;-72
2022/11/09 01:05:10;;;;;;;;;17.50;17.50;;;;;18.06;54.17;99903.38;5036883;28;46008;-71
2022/11/09 01:07:36;;;;;;;;;12.00;12.00;;;;;18.08;53.98;99913.91;5037394;28;45243;-72
2022/11/09 01:10:03;;;;;;;;;9.33;9.33;;;;;17.99;54.20;99903.44;5035722;28;47138;-78
2022/11/09 01:12:29;;;;;;;;;8.67;8.00;;;;;17.97;54.15;99919.31;5035421;28;45481;-74
2022/11/09 01:14:54;;;;;;;;;6.00;6.00;;;;;17.87;54.50;99900.03;5037353;28;45421;-72
2022/11/09 01:17:20;;;;;;;;;3.00;3.00;;;;;17.85;54.50;99898.31;5035561;28;45419;-73
2022/11/09 01:19:45;;;;;;;;;2.67;2.67;;;;;17.82;54.69;99907.09;5036775;28;45386;-78
2022/11/09 01:22:11;;;;;;;;;1.67;1.67;;;;;17.76;55.05;99899.22;5037817;28;45429;-72
2022/11/09 01:24:37;;;;;;;;;2.33;1.67;;;;;17.80;55.37;99913.28;5039225;28;45518;-79
2022/11/09 01:27:02;;;;;;;;;2.67;2.67;;;;;17.65;55.23;99891.41;5040489;28;45636;-72
2022/11/09 01:29:28;;;;;;;;;1.67;1.67;;;;;17.72;55.36;99923.06;5040326;28;46039;-72
2022/11/09 01:31:54;;;;;;;;;2.67;2.67;;;;;17.63;55.35;99902.88;5040302;28;45338;-71
2022/11/09 01:34:20;;;;;;;;;3.67;3.67;;;;;17.62;55.44;99899.34;5038905;28;45564;-73
2022/11/09 01:36:48;;;;;;;;;5.67;4.67;;;;;17.65;55.64;99923.09;5040473;28;45485;-78
2022/11/09 01:39:14;;;;;;;;;4.33;3.67;;;;;17.62;55.63;99915.19;5040266;28;45619;-79
2022/11/09 01:41:39;;;;;;;;;16.75;16.00;;;;;17.57;55.44;99909.09;5040416;28;45449;-78
2022/11/09 01:44:13;;;;;;;;;11.33;10.67;;;;;17.63;55.59;99926.66;5040420;28;45478;-79
2022/11/09 01:46:44;;;;;;;;;5.00;4.00;;;;;17.62;55.53;99927.53;5040613;28;45636;-79
2022/11/09 01:49:33;;;;;;;;;7.00;7.00;;;;;17.53;55.89;99927.59;5038839;28;46490;-72
2022/11/09 01:52:27;;;;;;;;;5.33;5.00;;;;;17.53;55.82;99932.88;5029218;28;45477;-72
2022/11/09 01:54:59;;;;;;;;;2.00;2.00;;;;;17.57;55.91;99929.34;5040456;28;45243;-79
2022/11/09 01:57:30;;;;;;;;;5.33;5.33;;;;;17.48;55.91;99925.00;5040541;28;45379;-79
2022/11/09 02:00:12;;;;;;;;;6.00;6.00;;;;;17.54;56.19;99945.22;5040287;28;46226;-72
2022/11/09 02:02:43;;;;;;;;;4.00;4.00;;;;;17.49;56.68;99938.22;5039894;28;45331;-79
2022/11/09 02:05:13;;;;;;;;;7.00;7.00;;;;;17.43;56.27;99945.31;5040104;28;45319;-72
2022/11/09 02:07:41;;;;;;;;;5.00;5.00;;;;;17.26;56.91;99924.31;5039896;28;45432;-79
2022/11/09 02:10:18;;;;;;;;;5.00;4.00;;;;;17.34;56.65;99943.59;5039737;28;45352;-79
2022/11/09 02:12:44;;;;;;;;;9.00;9.00;;;;;17.35;56.69;99955.94;5033894;28;46054;-79
2022/11/09 02:15:12;;;;;;;;;6.00;5.00;;;;;17.25;56.80;99936.63;5039968;28;45303;-79
2022/11/09 02:17:39;;;;;;;;;4.00;3.33;;;;;17.27;56.82;99945.41;5038562;28;45570;-78
2022/11/09 02:20:16;;;;;;;;;5.00;5.00;;;;;17.18;56.70;99934.91;5038349;28;46301;-78
2022/11/09 02:22:42;;;;;;;;;6.00;6.00;;;;;17.15;56.93;99936.69;5039460;28;45480;-72
2022/11/09 02:25:14;;;;;;;;;4.00;4.00;;;;;17.14;56.83;99941.09;5039848;28;45358;-79
2022/11/09 02:27:41;;;;;;;;;4.00;3.00;;;;;17.16;56.88;99939.31;5035339;28;45471;-72
2022/11/09 02:30:08;;;;;;;;;3.00;3.00;;;;;17.20;57.06;99956.88;5039310;28;46552;-74
2022/11/09 02:32:34;;;;;;;;;2.33;2.33;;;;;17.18;56.99;99942.81;5039115;28;45293;-77
2022/11/09 02:35:00;;;;;;;;;3.67;3.67;;;;;17.15;57.27;99940.22;5039604;28;45496;-72
2022/11/09 02:37:33;;;;;;;;;3.00;3.00;;;;;17.12;57.21;99937.59;5039625;28;45575;-72
2022/11/09 02:40:06;;;;;;;;;3.00;3.00;;;;;17.17;56.93;99933.19;5039626;28;45437;-78
2022/11/09 02:42:31;;;;;;;;;4.00;3.00;;;;;17.04;57.04;99916.53;5039377;28;45411;-74
2022/11/09 02:44:58;;;;;;;;;5.00;4.00;;;;;17.06;56.99;99922.66;5039479;28;45402;-79
2022/11/09 02:47:25;;;;;;;;;3.33;3.33;;;;;17.11;57.18;99933.22;5039459;28;45397;-79
2022/11/09 02:49:50;;;;;;;;;6.00;6.00;;;;;17.08;57.27;99935.88;5039026;28;45622;-79
2022/11/09 02:52:17;;;;;;;;;4.00;4.00;;;;;17.00;57.07;99920.06;5038872;28;45332;-79
2022/11/09 02:54:43;;;;;;;;;3.00;3.00;;;;;16.96;57.37;99915.69;5039144;28;45500;-78
2022/11/09 02:57:09;;;;;;;;;3.33;3.00;;;;;17.02;57.47;99936.78;5039153;28;45311;-78
2022/11/09 02:59:35;;;;;;;;;3.00;2.00;;;;;16.94;57.47;99921.88;5038566;28;45453;-79
2022/11/09 03:02:01;;;;;;;;;4.00;3.00;;;;;16.93;57.62;99926.28;5039402;28;45434;-78
2022/11/09 03:04:26;;;;;;;;;3.00;3.00;;;;;16.84;57.76;99916.66;5039088;28;45408;-77
2022/11/09 03:06:52;;;;;;;;;3.00;3.00;;;;;16.85;57.66;99917.53;5039406;28;45509;-79
2022/11/09 03:09:18;;;;;;;;;2.00;2.00;;;;;16.82;57.54;99917.56;5038979;28;46333;-72
2022/11/09 03:11:43;;;;;;;;;1.67;1.67;;;;;16.91;57.63;99928.06;5054176;28;45520;-72
2022/11/09 03:14:09;;;;;;;;;3.00;3.00;;;;;16.93;57.33;99933.31;5054299;28;45387;-78
2022/11/09 03:16:38;;;;;;;;;2.00;2.00;;;;;16.98;57.37;99939.44;5039073;28;45441;-78
2022/11/09 03:19:04;;;;;;;;;3.00;3.00;;;;;16.99;57.21;99928.00;5038720;28;45379;-73
2022/11/09 03:21:30;;;;;;;;;3.00;3.00;;;;;16.91;57.43;99912.25;5038986;28;45237;-72
2022/11/09 03:23:55;;;;;;;;;3.00;3.00;;;;;16.93;57.67;99909.56;5038460;28;45299;-79
2022/11/09 03:26:21;;;;;;;;;3.00;3.00;;;;;16.93;57.50;99909.56;5039105;28;45411;-79
2022/11/09 03:28:47;;;;;;;;;5.00;4.33;;;;;17.06;57.21;99930.59;5038535;28;46506;-78
2022/11/09 03:31:13;;;;;;;;;3.00;3.00;;;;;17.04;57.54;99935.00;5053790;28;45331;-78
2022/11/09 03:33:39;;;;;;;;;5.00;4.67;;;;;16.99;57.37;99931.53;5038483;28;45329;-79
2022/11/09 03:36:08;;;;;;;;;5.00;5.00;;;;;17.08;57.36;99947.28;5038603;28;45394;-72
2022/11/09 03:38:34;;;;;;;;;4.67;4.00;;;;;17.12;57.21;99948.16;5038877;28;45413;-72
2022/11/09 03:41:01;;;;;;;;;3.00;3.00;;;;;17.13;57.10;99936.72;5053797;28;45564;-72
2022/11/09 03:43:27;;;;;;;;;3.33;2.67;;;;;17.13;57.12;99917.34;5038555;28;45324;-72
2022/11/09 03:45:54;;;;;;;;;3.67;3.67;;;;;17.26;57.08;99942.78;5037882;28;46078;-73
2022/11/09 03:48:19;;;;;;;;;3.67;3.00;;;;;17.19;56.96;99919.94;5038162;28;45485;-78
2022/11/09 03:50:45;;;;;;;;;3.00;3.00;;;;;17.21;56.98;99920.81;5038066;28;45458;-78
2022/11/09 03:53:11;;;;;;;;;3.00;3.00;;;;;17.35;56.84;99928.63;5038317;28;45501;-71
2022/11/09 03:55:38;;;;;;;;;4.00;2.00;;;;;17.32;56.36;99912.81;5038277;28;45267;-73
2022/11/09 03:58:06;;;;;;;;;3.33;3.33;;;;;17.37;56.85;99922.47;5038390;28;46079;-72
2022/11/09 04:00:31;;;;;;;;;3.00;3.00;;;;;17.39;56.80;99941.81;5038278;28;45357;-78
2022/11/09 04:02:57;;;;;;;;;2.00;2.00;;;;;17.37;56.72;99921.56;5038120;28;45339;-79
2022/11/09 04:05:23;;;;;;;;;2.67;2.67;;;;;17.44;56.66;99939.13;5038179;28;45394;-72
2022/11/09 04:07:51;;;;;;;;;3.00;2.67;;;;;17.46;56.64;99946.13;5053152;28;46375;-72
2022/11/09 04:10:17;;;;;;;;;2.67;2.67;;;;;17.36;56.66;99935.66;5037646;28;45441;-72
2022/11/09 04:12:43;;;;;;;;;2.00;2.00;;;;;17.42;56.79;99946.19;5037862;28;45527;-72
2022/11/09 04:15:09;;;;;;;;;2.67;2.00;;;;;17.30;56.97;99926.03;5037910;28;45409;-75
2022/11/09 04:17:34;;;;;;;;;2.00;2.00;;;;;17.38;56.92;99955.03;5038044;28;45466;-77
2022/11/09 04:20:00;;;;;;;;;3.67;3.00;;;;;17.35;56.88;99939.19;5053149;28;45359;-79
2022/11/09 04:22:26;;;;;;;;;4.00;3.00;;;;;17.30;56.87;99929.53;5038018;28;45375;-74
2022/11/09 04:24:52;;;;;;;;;1.67;1.67;;;;;17.27;57.27;99934.00;5038004;28;45294;-80
2022/11/09 04:27:17;;;;;;;;;3.00;2.00;;;;;17.27;57.03;99948.06;5037683;28;45410;-75
2022/11/09 04:29:43;;;;;;;;;4.00;2.00;;;;;17.26;57.10;99941.00;5037658;28;45436;-78
2022/11/09 04:32:08;;;;;;;;;2.00;2.00;;;;;17.33;57.07;99956.81;5037731;28;45413;-79
2022/11/09 04:34:34;;;;;;;;;2.67;2.67;;;;;17.36;57.39;99970.00;5053561;28;45325;-79
2022/11/09 04:36:59;;;;;;;;;2.33;2.00;;;;;17.27;57.29;99965.66;5037417;28;45599;-77
2022/11/09 04:39:25;;;;;;;;;2.33;2.00;;;;;17.24;57.56;99961.25;5037212;28;45412;-71
2022/11/09 04:41:50;;;;;;;;;2.67;2.67;;;;;17.25;57.47;99972.72;5037567;28;45328;-77
2022/11/09 04:44:16;;;;;;;;;2.67;2.67;;;;;17.23;57.68;99969.19;5037803;28;45477;-77
2022/11/09 04:46:41;;;;;;;;;3.00;2.33;;;;;17.23;57.48;99972.72;5037389;28;46435;-77
2022/11/09 04:49:07;;;;;;;;;1.00;1.00;;;;;17.33;57.29;99992.03;5037470;28;45511;-77
2022/11/09 04:51:33;;;;;;;;;2.33;2.33;;;;;17.30;57.82;99986.75;5037374;28;45876;-77
2022/11/09 04:53:58;;;;;;;;;3.33;2.67;;;;;17.20;57.91;99972.72;5052875;28;45358;-77
2022/11/09 04:56:24;;;;;;;;;3.00;3.00;;;;;17.30;57.96;99990.25;5036341;28;45447;-71
2022/11/09 04:58:49;;;;;;;;;7.33;7.00;;;;;17.32;58.09;99986.75;5036938;28;45497;-77
2022/11/09 05:01:16;;;;;;;;;5.67;5.00;;;;;17.34;57.91;99992.88;5037236;28;45466;-73
2022/11/09 05:03:41;;;;;;;;;4.00;4.00;;;;;17.29;58.07;99979.72;5037474;28;45395;-70
2022/11/09 05:08:53;;;;;;;;;4.00;4.00;;;;;17.31;58.16;99977.97;5037045;28;45327;-71
2022/11/09 05:11:19;;;;;;;;;4.67;4.67;;;;;17.33;58.05;99988.47;5036992;28;45497;-77
2022/11/09 05:13:45;;;;;;;;;4.67;4.67;;;;;17.30;58.38;99994.66;5037477;28;45453;-77
2022/11/09 05:16:11;;;;;;;;;3.00;3.00;;;;;17.17;58.39;99962.22;5036993;28;46405;-76
2022/11/09 05:18:37;;;;;;;;;3.00;3.00;;;;;17.25;58.26;99989.44;5052714;28;45426;-77
2022/11/09 05:21:03;;;;;;;;;6.33;6.00;;;;;17.27;58.52;99995.56;5052373;28;45536;-77
2022/11/09 05:26:13;;;;;;;;;3.00;3.00;;;;;17.24;58.08;99994.72;5036680;28;45449;-77
2022/11/09 05:28:39;;;;;;;;;4.67;4.67;;;;;17.32;58.31;100011.38;5037043;28;45503;-76
2022/11/09 05:31:04;;;;;;;;;4.67;4.00;;;;;17.24;58.12;99995.56;5036629;28;45320;-75
2022/11/09 05:33:30;;;;;;;;;3.67;3.67;;;;;17.29;58.21;100007.00;5036964;28;45489;-77
2022/11/09 05:35:56;;;;;;;;;4.33;4.00;;;;;17.32;58.28;100010.50;5036724;28;45428;-74
2022/11/09 05:38:22;;;;;;;;;2.00;2.00;;;;;17.24;58.13;100000.84;5036811;28;45526;-78
2022/11/09 05:40:49;;;;;;;;;3.33;3.00;;;;;17.21;57.94;99992.97;5036783;28;45509;-73
2022/11/09 05:43:14;;;;;;;;;2.33;2.00;;;;;17.20;58.59;99992.97;5036844;28;45366;-77
2022/11/09 05:45:41;;;;;;;;;3.67;2.67;;;;;17.29;58.48;100017.56;5036866;28;45400;-77
2022/11/09 05:48:07;;;;;;;;;3.67;3.00;;;;;17.34;58.20;100024.56;5052531;28;45466;-79
2022/11/09 05:50:33;;;;;;;;;4.00;4.00;;;;;17.22;58.13;99996.47;5036713;28;45161;-76
2022/11/09 05:53:00;;;;;;;;;2.67;2.67;;;;;17.31;58.22;100012.28;5036638;28;45418;-75
2022/11/09 05:55:26;;;;;;;;;4.67;4.00;;;;;17.35;58.11;100018.38;5036366;28;45466;-73
2022/11/09 05:57:52;;;;;;;;;3.00;3.00;;;;;17.39;58.04;100023.66;5036285;28;45457;-74
2022/11/09 06:00:17;;;;;;;;;3.00;3.00;;;;;17.36;57.72;100012.25;5036766;28;45663;-79
2022/11/09 06:02:43;;;;;;;;;3.67;3.00;;;;;17.45;57.52;100028.03;5036448;28;45378;-73
2022/11/09 06:05:09;;;;;;;;;1.33;1.00;;;;;17.47;57.52;100026.25;5050135;28;45747;-73
2022/11/09 06:07:34;;;;;;;;;2.33;2.33;;;;;17.48;57.64;100036.78;5034700;28;45497;-73
2022/11/09 06:10:00;;;;;;;;;2.00;2.00;;;;;17.42;57.65;100031.53;5038390;28;45717;-73
2022/11/09 06:12:25;;;;;;;;;2.00;2.00;;;;;17.46;57.71;100059.69;5038263;28;45603;-74
2022/11/09 06:14:51;;;;;;;;;2.67;2.00;;;;;17.37;57.85;100033.34;5038076;28;45589;-73
2022/11/09 06:17:16;;;;;;;;;2.00;2.00;;;;;17.39;57.81;100042.16;5037920;28;45511;-76
2022/11/09 06:19:42;;;;;;;;;3.67;3.00;;;;;17.48;57.92;100060.56;5053660;28;45466;-78
2022/11/09 06:22:08;;;;;;;;;3.33;3.33;;;;;17.44;57.76;100065.88;5036001;28;45352;-78
2022/11/09 06:24:34;;;;;;;;;2.67;2.67;;;;;17.27;57.96;100040.44;5036312;28;46917;-78
2022/11/09 06:26:59;;;;;;;;;2.00;2.00;;;;;17.32;57.87;100066.81;5053149;28;45490;-78
2022/11/09 06:29:25;;;;;;;;;2.00;2.00;;;;;17.27;57.47;100064.22;5037716;28;45453;-76
2022/11/09 06:31:50;;;;;;;;;2.00;2.00;;;;;17.43;57.86;100087.91;5054675;28;45477;-78
2022/11/09 06:34:16;;;;;;;;;2.33;2.33;;;;;17.41;59.21;100087.03;5039633;28;46149;-78
2022/11/09 06:36:43;;;;;;;;;3.00;2.00;;;;;17.37;59.62;100090.53;5039716;28;45415;-71
2022/11/09 06:39:09;;;;;;;;;1.67;1.67;;;;;17.50;59.80;100113.38;5055078;28;45386;-71
2022/11/09 06:41:35;;;;;;;;;3.00;2.00;;;;;17.39;60.55;100096.69;5038134;28;45366;-71
2022/11/09 06:44:00;;;;;;;;;1.00;1.00;;;;;17.39;60.81;100104.59;5038987;28;45849;-78
2022/11/09 06:46:26;;;;;;;;;2.00;2.00;;;;;17.41;61.41;100106.38;5039274;28;45406;-72
2022/11/09 06:48:51;;;;;;;;;2.00;1.67;;;;;17.48;62.22;100123.94;5039121;28;45516;-79
2022/11/09 06:51:17;;;;;;;;;2.00;1.00;;;;;17.48;62.50;100116.00;5038735;28;45361;-72
2022/11/09 06:53:43;;;;;;;;;2.67;1.67;;;;;17.45;62.79;100116.03;5039347;28;45502;-79
2022/11/09 06:56:09;;;;;;;;;2.00;2.00;;;;;17.40;63.54;100111.66;5039015;28;45463;-72
2022/11/09 06:58:35;;;;;;;;;1.00;1.00;;;;;17.42;63.40;100123.09;5039349;28;45500;-78
2022/11/09 07:01:09;;;;;;;;;2.00;1.00;;;;;17.42;63.71;100128.38;5039335;28;45354;-78
2022/11/09 07:03:36;;;;;;;;;1.00;1.00;;;;;17.34;63.90;100124.91;5038332;28;46251;-78
2022/11/09 07:06:07;;;;;;;;;1.00;1.00;;;;;17.36;63.73;100138.97;5038410;28;45563;-71
2022/11/09 07:08:33;;;;;;;;;3.00;2.00;;;;;17.32;64.15;100145.16;5038983;28;45541;-72
2022/11/09 07:11:07;;;;;;;;;2.00;2.00;;;;;17.28;64.47;100137.22;5039053;28;45474;-78
2022/11/09 07:13:33;;;;;;;;;3.00;2.00;;;;;17.23;64.27;100136.38;5038442;28;45453;-79
2022/11/09 07:15:58;;;;;;;;;3.00;2.33;;;;;17.33;64.65;100163.63;5038068;28;45347;-78
2022/11/09 07:18:24;;;;;;;;;4.67;4.00;;;;;17.33;64.49;100162.72;5054344;28;45442;-71
2022/11/09 07:20:50;;;;;;;;;4.33;4.33;;;;;17.34;64.88;100167.13;5053313;28;45593;-72
2022/11/09 07:23:15;;;;;;;;;5.33;5.00;;;;;17.41;64.58;100188.25;5038556;28;45465;-72
2022/11/09 07:25:41;;;;;;;;;6.00;5.33;;;;;17.34;64.66;100175.06;5038831;28;45223;-72
2022/11/09 07:28:08;;;;;;;;;5.00;5.00;;;;;17.38;64.30;100175.03;5038008;28;45515;-72
2022/11/09 07:30:35;;;;;;;;;4.00;4.00;;;;;17.48;64.19;100191.72;5038705;28;45239;-79
2022/11/09 07:33:02;;;;;;;;;5.00;5.00;;;;;17.50;64.54;100203.16;5053220;28;47537;-72
2022/11/09 07:35:27;;;;;;;;;5.00;5.00;;;;;17.48;64.71;100200.50;5038166;28;45517;-72
2022/11/09 07:37:53;;;;;;;;;15.00;13.75;;;;;17.38;64.49;100182.94;5053585;28;45322;-77
2022/11/09 07:40:19;;;;;;;;;7.00;6.33;;;;;17.43;64.83;100185.59;5038660;28;45228;-71
2022/11/09 07:42:45;;;;;;;;;3.00;3.00;;;;;17.58;64.42;100214.56;5038283;28;46164;-71
2022/11/09 07:45:11;;;;;;;;;2.67;2.00;;;;;17.62;64.20;100221.59;5037637;28;45344;-73
2022/11/09 07:47:36;;;;;;;;;3.00;3.00;;;;;17.56;63.90;100205.75;5038189;28;45596;-78
2022/11/09 07:50:03;;;;;;;;;4.00;4.00;;;;;17.62;63.79;100212.78;5038332;28;45406;-77
2022/11/09 07:52:28;;;;;;;;;2.67;1.67;;;;;17.66;63.90;100210.13;5037459;28;46266;-78
2022/11/09 07:54:54;;;;;;;;;3.00;2.33;;;;;17.65;63.67;100208.38;5036405;28;45724;-78
2022/11/09 07:57:20;;;;;;;;;2.33;2.00;;;;;17.74;64.05;100222.44;5041581;28;45362;-76
2022/11/09 07:59:46;;;;;;;;;1.33;1.00;;;;;17.69;63.31;100211.91;5037534;28;45503;-72
2022/11/09 08:02:12;;;;;;;;;2.67;2.33;;;;;17.79;63.42;100234.75;5036988;28;45479;-78
2022/11/09 08:04:37;;;;;;;;;15.00;14.25;;;;;17.74;63.62;100225.06;5036926;28;45173;-71
2022/11/09 08:07:03;;;;;;;;;7.67;7.33;;;;;17.82;63.47;100239.13;5037637;28;45524;-72
2022/11/09 08:09:28;;;;;;;;;8.33;8.33;;;;;17.83;64.36;100244.44;5037678;28;45182;-72
2022/11/09 08:11:54;;;;;;;;;16.00;15.00;;;;;17.82;63.88;100240.00;5035524;28;46879;-77
2022/11/09 08:14:19;;;;;;;;;4.33;4.00;;;;;17.91;63.38;100257.63;5035376;28;45403;-72
2022/11/09 08:16:45;;;;;;;;;5.00;5.00;;;;;17.92;63.20;100256.72;5037172;28;45366;-71
2022/11/09 08:19:10;;;;;;;;;6.67;5.33;;;;;17.89;63.39;100256.75;5037196;28;45465;-73
2022/11/09 08:21:36;;;;;;;;;2.67;2.67;;;;;17.95;63.81;100277.88;5036893;28;46526;-78
2022/11/09 08:24:04;;;;;;;;;4.00;2.67;;;;;17.83;63.65;100259.38;5052355;28;45498;-78
2022/11/09 08:26:30;;;;;;;;;4.00;4.00;;;;;17.81;63.61;100269.09;5037185;28;45491;-77
2022/11/09 08:28:55;;;;;;;;;3.67;3.67;;;;;17.83;63.94;100275.25;5037432;28;45386;-77
2022/11/09 08:31:21;;;;;;;;;3.00;2.67;;;;;17.79;64.28;100277.00;5037075;28;45454;-72
2022/11/09 08:33:46;;;;;;;;;5.33;3.67;;;;;17.63;64.66;100247.13;5037714;28;45496;-77
2022/11/09 08:36:17;;;;;;;;;5.00;5.00;;;;;17.80;64.84;100289.31;5037605;28;45236;-72
2022/11/09 08:38:44;;;;;;;;;9.33;8.00;;;;;17.92;64.50;100301.66;5036345;28;45622;-72
2022/11/09 08:41:12;;;;;;;;;14.25;13.50;;;;;17.85;64.65;100278.78;5035263;28;47983;-72
2022/11/09 08:43:38;;;;;;;;;9.33;8.00;;;;;17.93;65.01;100302.53;5037075;28;45513;-72
2022/11/09 08:46:04;;;;;;;;;7.67;7.00;;;;;17.81;65.82;100298.16;5034746;28;45493;-72
2022/11/09 08:48:29;;;;;;;;;5.33;4.33;;;;;17.84;65.23;100300.78;5035763;28;45413;-73
2022/11/09 08:50:58;;;;;;;;;6.67;5.33;;;;;17.92;65.12;100306.06;5037349;28;45974;-72
2022/11/09 08:53:26;;;;;;;;;4.33;4.33;;;;;17.97;65.29;100318.38;5037113;28;45418;-72
2022/11/09 08:55:52;;;;;;;;;3.67;3.00;;;;;18.04;65.41;100317.44;5037173;28;45491;-73
2022/11/09 08:58:18;;;;;;;;;3.00;3.00;;;;;18.15;65.55;100325.34;5036197;28;45494;-73
2022/11/09 09:00:44;;;;;;;;;3.33;2.67;;;;;18.32;65.64;100334.94;5037008;28;46184;-73
2022/11/09 09:03:09;;;;;;;;;2.00;1.33;;;;;18.34;65.28;100320.81;5036835;28;45302;-72
2022/11/09 09:05:36;;;;;;;;;2.00;2.00;;;;;18.59;65.06;100347.16;5037218;28;45387;-78
2022/11/09 09:08:04;;;;;;;;;2.00;2.00;;;;;18.64;64.54;100346.25;5037531;28;45550;-74
2022/11/09 09:10:31;;;;;;;;;1.33;1.00;;;;;18.69;64.34;100347.06;5035574;28;45603;-73
2022/11/09 09:12:57;;;;;;;;;1.33;0.67;;;;;18.78;64.12;100371.72;5036929;28;45319;-78
2022/11/09 09:15:22;;;;;;;;;1.00;0.33;;;;;18.65;63.46;100347.97;5037174;28;45344;-73
2022/11/09 09:17:48;;;;;;;;;1.67;0.67;;;;;18.66;62.78;100354.16;5037496;28;45524;-78
2022/11/09 09:20:15;;;;;;;;;0.33;0.33;;;;;18.72;63.75;100353.22;5035351;28;46442;-73
2022/11/09 09:22:41;;;;;;;;;2.67;1.00;;;;;18.84;63.18;100364.66;5036816;28;45500;-73
2022/11/09 09:25:07;;;;;;;;;0.67;0.67;;;;;18.83;63.05;100349.66;5035593;28;45679;-73
2022/11/09 09:27:33;;;;;;;;;1.00;0.67;;;;;19.02;62.74;100361.00;5037089;28;45236;-73
2022/11/09 09:29:58;;;;;;;;;2.00;1.00;;;;;19.15;61.79;100363.56;5035187;28;46941;-73
2022/11/09 09:32:24;;;;;;;;;2.00;1.00;;;;;19.08;61.91;100341.56;5036801;28;45322;-73
2022/11/09 09:34:49;;;;;;;;;1.33;1.00;;;;;19.38;61.46;100371.31;5035338;28;45436;-73
2022/11/09 09:37:16;;;;;;;;;2.33;2.00;;;;;19.35;61.39;100366.03;5036790;28;45480;-73
2022/11/09 09:39:42;;;;;;;;;1.00;1.00;;;;;19.38;61.29;100371.31;5036000;28;47587;-77
2022/11/09 09:42:22;;;;;;;;;3.67;2.00;;;;;19.42;61.97;100373.91;5035007;28;45242;-73
2022/11/09 09:44:59;;;;;;;;;1.00;1.00;;;;;19.47;61.91;100385.31;5039917;28;45406;-73
2022/11/09 09:47:46;;;;;;;;;2.67;2.00;;;;;19.38;62.34;100403.97;5040370;28;45449;-78
2022/11/09 09:50:47;;;;;;;;;1.00;1.00;;;;;19.24;62.22;100414.69;5039515;28;45496;-74
2022/11/09 09:53:35;;;;;;;;;0.67;0.67;;;;;19.09;62.41;100438.59;5035054;28;45557;-74
2022/11/09 09:56:18;;;;;;;;;1.33;1.33;;;;;18.88;62.21;100459.03;5040063;28;45301;-77
2022/11/09 09:59:06;;;;;;;;;1.00;0.00;;;;;18.57;62.88;100460.91;5040230;28;45318;-73
2022/11/09 10:01:42;;;;;;;;;0.00;0.00;;;;;18.35;63.53;100473.34;5024319;28;45542;-73
2022/11/09 10:04:22;;;;;;;;;0.00;0.00;;;;;18.18;65.44;100488.34;5039917;28;45361;-73
2022/11/09 10:07:06;;;;;;;;;0.00;0.00;;;;;17.93;66.01;100498.13;5039883;28;45517;-73
2022/11/09 10:09:46;;;;;;;;;0.33;0.00;;;;;17.70;67.00;100496.31;5038566;28;45606;-73
2022/11/09 10:12:53;;;;;;;;;0.33;0.00;;;;;17.38;68.51;100488.38;5039442;28;46686;-73
2022/11/09 10:15:21;;;;;;;;;2.67;2.00;;;;;17.18;68.42;100518.25;5039563;28;45331;-73
2022/11/09 10:18:25;;;;;;;;;2.67;0.00;;;;;16.59;68.59;100445.03;5038183;28;45472;-72
2022/11/09 10:21:13;;;;;;;;;1.00;0.00;;;;;16.91;69.17;100534.91;5008460;28;46332;-78
2022/11/09 10:24:01;;;;;;;;;0.00;0.00;;;;;16.76;69.25;100542.72;5037607;28;46844;-78
2022/11/09 10:26:38;;;;;;;;;0.00;0.00;;;;;16.66;68.81;100529.47;5039054;28;45434;-78
2022/11/09 10:29:45;;;;;;;;;0.00;0.00;;;;;16.76;68.67;100555.91;5037968;28;45562;-78
2022/11/09 10:32:19;;;;;;;;;0.00;0.00;;;;;16.48;69.96;100545.22;5039135;28;45459;-72
2022/11/09 10:34:59;;;;;;;;;0.00;0.00;;;;;16.53;70.36;100563.69;5038294;28;47573;-75
2022/11/09 10:37:51;;;;;;;;;1.00;0.00;;;;;16.55;70.41;100560.16;5039227;28;45374;-72
2022/11/09 10:40:38;;;;;;;;;1.00;0.00;;;;;16.64;70.13;100569.91;5039316;28;45208;-73
2022/11/09 10:43:13;;;;;;;;;1.00;0.00;;;;;16.57;70.21;100554.91;5039449;28;45469;-73
2022/11/09 10:45:42;;;;;;;;;0.00;0.00;;;;;16.65;70.25;100588.38;5037764;28;46623;-73
2022/11/09 10:48:09;;;;;;;;;4.67;4.33;;;;;16.54;70.39;100602.38;5039223;28;45600;-72
2022/11/09 10:50:40;;;;;;;;;0.00;0.00;;;;;16.34;68.95;100603.13;5039220;28;45467;-72
2022/11/09 10:53:14;;;;;;;;;0.00;0.00;;;;;16.32;69.41;100620.69;5037771;28;45404;-73
2022/11/09 10:55:53;;;;;;;;;0.00;0.00;;;;;16.29;68.40;100618.00;5038734;28;45469;-78
2022/11/09 10:58:33;;;;;;;;;0.00;0.00;;;;;16.05;68.12;100609.03;5037521;28;45471;-73
2022/11/09 11:01:24;;;;;;;;;0.00;0.00;;;;;16.01;68.27;100599.31;5039052;28;45525;-74
2022/11/09 11:03:54;;;;;;;;;1.00;0.00;;;;;15.89;68.72;100604.50;5035910;28;45506;-72
2022/11/09 11:06:20;;;;;;;;;0.00;0.00;;;;;16.06;68.29;100637.16;5038500;28;46275;-73
2022/11/09 11:08:56;;;;;;;;;0.00;0.00;;;;;15.93;68.05;100635.25;5037250;28;45381;-71
2022/11/09 11:11:32;;;;;;;;;0.00;0.00;;;;;15.75;69.18;100620.16;5038544;28;45608;-72
2022/11/09 11:14:12;;;;;;;;;0.00;0.00;;;;;15.82;69.67;100626.41;5039425;28;45712;-72
2022/11/09 11:16:39;;;;;;;;;0.00;0.00;;;;;15.60;70.53;100620.88;5039889;28;45525;-72
2022/11/09 11:19:24;;;;;;;;;0.67;0.67;;;;;15.69;70.62;100620.94;5038162;28;45437;-72
2022/11/09 11:22:10;;;;;;;;;4.00;4.00;;;;;15.78;69.89;100601.78;5036973;28;45476;-72
2022/11/09 11:24:57;;;;;;;;;0.00;0.00;;;;;15.89;68.90;100615.03;5038403;28;45313;-72
2022/11/09 11:27:50;;;;;;;;;0.00;0.00;;;;;15.83;69.00;100604.44;5038285;28;46107;-72
2022/11/09 11:30:27;;;;;;;;;0.00;0.00;;;;;15.99;68.99;100631.81;5038084;28;45481;-72
2022/11/09 11:32:56;;;;;;;;;0.00;0.00;;;;;15.95;70.32;100625.63;5038214;28;45457;-72
2022/11/09 11:35:48;;;;;;;;;0.00;0.00;;;;;16.02;69.49;100623.94;5038573;28;45375;-72
2022/11/09 11:38:42;;;;;;;;;1.00;0.00;;;;;16.08;69.35;100618.72;5037815;28;45613;-72
2022/11/09 11:41:39;;;;;;;;;0.00;0.00;;;;;15.98;69.07;100612.50;5036368;28;45476;-72
2022/11/09 11:44:16;;;;;;;;;1.67;0.33;;;;;16.01;68.47;100623.03;5038208;28;45529;-72